createdAt,value
2017-12-25T00:00:21.086Z,0.00
2017-12-25T00:01:21.107Z,0.00
2017-12-25T00:02:21.136Z,0.00
2017-12-25T00:03:21.152Z,0.00
2017-12-25T00:04:21.179Z,0.00
2017-12-25T00:05:42.218Z,0.00
2017-12-25T00:06:21.225Z,0.00
2017-12-25T00:07:21.251Z,0.00
2017-12-25T00:08:21.275Z,0.00
2017-12-25T00:09:21.295Z,0.00
2017-12-25T00:10:21.314Z,0.00
2017-12-25T00:11:42.354Z,0.00
2017-12-25T00:12:21.367Z,0.00
2017-12-25T00:13:21.386Z,0.00
2017-12-25T00:14:21.402Z,0.00
2017-12-25T00:15:21.440Z,0.00
2017-12-25T00:16:21.457Z,0.00
2017-12-25T00:17:42.494Z,0.00
2017-12-25T00:18:21.504Z,0.00
2017-12-25T00:19:21.548Z,0.00
2017-12-25T00:20:21.549Z,0.00
2017-12-25T00:21:21.576Z,0.00
2017-12-25T00:22:21.607Z,0.00
2017-12-25T00:23:42.634Z,0.00
2017-12-25T00:24:21.657Z,0.00
2017-12-25T00:25:21.679Z,0.00
2017-12-25T00:26:21.694Z,0.00
2017-12-25T00:27:21.718Z,0.00
2017-12-25T00:28:21.743Z,0.00
2017-12-25T00:29:42.783Z,0.00
2017-12-25T00:30:21.788Z,0.00
2017-12-25T00:31:21.909Z,0.00
2017-12-25T00:32:21.849Z,0.00
2017-12-25T00:33:21.877Z,0.00
2017-12-25T00:34:21.893Z,0.00
2017-12-25T00:35:42.923Z,0.00
2017-12-25T00:36:21.938Z,0.00
2017-12-25T00:37:21.964Z,0.00
2017-12-25T00:38:21.983Z,0.00
2017-12-25T00:39:22.000Z,0.00
2017-12-25T00:40:22.032Z,0.00
2017-12-25T00:41:43.078Z,0.00
2017-12-25T00:42:22.086Z,0.00
2017-12-25T00:43:22.115Z,0.00
2017-12-25T00:44:22.137Z,0.00
2017-12-25T00:45:22.145Z,0.00
2017-12-25T00:46:22.194Z,0.00
2017-12-25T00:47:43.207Z,0.00
2017-12-25T00:48:22.221Z,0.00
2017-12-25T00:49:22.238Z,0.00
2017-12-25T00:50:22.271Z,0.00
2017-12-25T00:51:22.293Z,0.00
2017-12-25T00:52:22.314Z,0.00
2017-12-25T00:53:43.357Z,0.00
2017-12-25T00:54:22.368Z,0.00
2017-12-25T00:55:22.439Z,0.00
2017-12-25T00:56:22.408Z,0.00
2017-12-25T00:57:22.428Z,0.00
2017-12-25T00:58:22.458Z,0.00
2017-12-25T00:59:43.494Z,0.00
2017-12-25T01:00:22.508Z,0.00
2017-12-25T01:01:22.526Z,0.00
2017-12-25T01:02:22.555Z,0.00
2017-12-25T01:03:22.589Z,0.00
2017-12-25T01:04:22.614Z,0.00
2017-12-25T01:05:44.597Z,0.00
2017-12-25T01:06:22.643Z,0.00
2017-12-25T01:07:22.670Z,0.00
2017-12-25T01:08:22.694Z,0.00
2017-12-25T01:09:22.718Z,0.00
2017-12-25T01:10:22.739Z,0.00
2017-12-25T01:11:43.776Z,0.00
2017-12-25T01:12:22.787Z,0.00
2017-12-25T01:13:22.810Z,0.00
2017-12-25T01:14:22.828Z,0.00
2017-12-25T01:15:22.867Z,0.00
2017-12-25T01:16:22.880Z,0.00
2017-12-25T01:17:43.929Z,0.00
2017-12-25T01:18:22.930Z,0.00
2017-12-25T01:19:22.962Z,0.00
2017-12-25T01:20:22.972Z,0.00
2017-12-25T01:21:22.997Z,0.00
2017-12-25T01:22:23.019Z,0.00
2017-12-25T01:23:44.058Z,0.00
2017-12-25T01:24:23.070Z,0.00
2017-12-25T01:25:23.102Z,0.00
2017-12-25T01:26:23.117Z,0.00
2017-12-25T01:27:23.145Z,0.00
2017-12-25T01:28:23.177Z,0.00
2017-12-25T01:29:44.283Z,0.00
2017-12-25T01:30:23.215Z,0.00
2017-12-25T01:31:23.252Z,0.00
2017-12-25T01:32:23.258Z,0.00
2017-12-25T01:33:23.290Z,0.00
2017-12-25T01:34:23.308Z,0.00
2017-12-25T01:35:44.352Z,0.00
2017-12-25T01:36:23.351Z,0.00
2017-12-25T01:37:23.386Z,0.00
2017-12-25T01:38:23.404Z,0.00
2017-12-25T01:39:23.431Z,0.00
2017-12-25T01:40:23.451Z,0.00
2017-12-25T01:41:44.489Z,0.00
2017-12-25T01:42:23.498Z,0.00
2017-12-25T01:43:23.521Z,0.00
2017-12-25T01:44:23.553Z,0.00
2017-12-25T01:45:23.573Z,0.00
2017-12-25T01:46:23.592Z,0.00
2017-12-25T01:47:44.633Z,0.00
2017-12-25T01:48:23.638Z,0.00
2017-12-25T01:49:23.669Z,0.00
2017-12-25T01:50:23.698Z,0.00
2017-12-25T01:51:23.709Z,0.00
2017-12-25T01:52:23.739Z,0.00
2017-12-25T01:53:44.771Z,0.00
2017-12-25T01:54:23.816Z,0.00
2017-12-25T01:55:23.800Z,0.00
2017-12-25T01:56:23.819Z,0.00
2017-12-25T01:57:23.857Z,0.00
2017-12-25T01:58:23.879Z,0.00
2017-12-25T01:59:44.920Z,0.00
2017-12-25T02:00:23.925Z,0.00
2017-12-25T02:01:23.941Z,0.00
2017-12-25T02:02:23.969Z,0.00
2017-12-25T02:03:23.998Z,0.00
2017-12-25T02:04:24.016Z,0.00
2017-12-25T02:05:45.058Z,0.00
2017-12-25T02:06:24.069Z,0.00
2017-12-25T02:07:24.091Z,0.00
2017-12-25T02:08:24.120Z,0.00
2017-12-25T02:09:24.138Z,0.00
2017-12-25T02:10:24.170Z,0.00
2017-12-25T02:11:45.199Z,0.00
2017-12-25T02:12:24.204Z,0.00
2017-12-25T02:13:24.229Z,0.00
2017-12-25T02:14:24.268Z,0.00
2017-12-25T02:15:24.296Z,0.00
2017-12-25T02:16:24.419Z,0.00
2017-12-25T02:17:45.338Z,0.00
2017-12-25T02:18:24.352Z,0.00
2017-12-25T02:19:24.389Z,0.00
2017-12-25T02:20:24.403Z,0.00
2017-12-25T02:21:24.418Z,0.00
2017-12-25T02:22:24.437Z,0.00
2017-12-25T02:23:45.478Z,0.00
2017-12-25T02:24:24.493Z,0.00
2017-12-25T02:25:24.567Z,0.00
2017-12-25T02:26:24.535Z,0.00
2017-12-25T02:27:24.612Z,0.00
2017-12-25T02:28:24.581Z,0.00
2017-12-25T02:29:45.627Z,0.00
2017-12-25T02:30:24.634Z,0.00
2017-12-25T02:31:24.657Z,0.00
2017-12-25T02:32:24.675Z,0.00
2017-12-25T02:33:24.709Z,0.00
2017-12-25T02:34:24.725Z,0.00
2017-12-25T02:35:45.772Z,0.00
2017-12-25T02:36:24.779Z,0.00
2017-12-25T02:37:24.793Z,0.00
2017-12-25T02:38:24.828Z,0.00
2017-12-25T02:39:24.837Z,0.00
2017-12-25T02:40:24.877Z,0.00
2017-12-25T02:41:45.915Z,0.00
2017-12-25T02:42:24.915Z,0.00
2017-12-25T02:43:24.936Z,0.00
2017-12-25T02:44:24.964Z,0.00
2017-12-25T02:45:24.979Z,0.00
2017-12-25T02:46:25.012Z,0.00
2017-12-25T02:47:46.048Z,0.00
2017-12-25T02:48:25.055Z,0.00
2017-12-25T02:49:25.072Z,0.00
2017-12-25T02:50:25.107Z,0.00
2017-12-25T02:51:25.122Z,0.00
2017-12-25T02:52:25.155Z,0.00
2017-12-25T02:53:46.193Z,0.00
2017-12-25T02:54:25.198Z,0.00
2017-12-25T02:55:25.219Z,0.00
2017-12-25T02:56:25.245Z,0.00
2017-12-25T02:57:25.270Z,0.00
2017-12-25T02:58:25.297Z,0.00
2017-12-25T02:59:46.343Z,0.00
2017-12-25T03:00:25.352Z,0.00
2017-12-25T03:01:25.362Z,0.00
2017-12-25T03:02:25.392Z,0.00
2017-12-25T03:03:25.413Z,0.00
2017-12-25T03:04:25.441Z,0.00
2017-12-25T03:05:46.476Z,0.00
2017-12-25T03:06:25.482Z,0.00
2017-12-25T03:07:25.505Z,0.00
2017-12-25T03:08:25.525Z,0.00
2017-12-25T03:09:25.555Z,0.00
2017-12-25T03:10:25.572Z,0.00
2017-12-25T03:11:46.612Z,0.00
2017-12-25T03:12:25.630Z,0.00
2017-12-25T03:13:25.643Z,0.00
2017-12-25T03:14:25.667Z,0.00
2017-12-25T03:15:25.693Z,0.00
2017-12-25T03:16:25.717Z,0.00
2017-12-25T03:17:46.754Z,0.00
2017-12-25T03:18:25.762Z,0.00
2017-12-25T03:19:25.787Z,0.00
2017-12-25T03:20:25.815Z,0.00
2017-12-25T03:21:25.849Z,0.00
2017-12-25T03:22:25.851Z,0.00
2017-12-25T03:23:46.897Z,0.00
2017-12-25T03:24:25.930Z,0.00
2017-12-25T03:25:25.926Z,0.00
2017-12-25T03:26:26.074Z,0.00
2017-12-25T03:27:25.976Z,0.00
2017-12-25T03:28:25.990Z,0.00
2017-12-25T03:29:47.037Z,0.00
2017-12-25T03:30:26.051Z,0.00
2017-12-25T03:31:26.061Z,0.00
2017-12-25T03:32:26.092Z,0.00
2017-12-25T03:33:26.110Z,0.00
2017-12-25T03:34:26.136Z,0.00
2017-12-25T03:35:47.176Z,0.00
2017-12-25T03:36:26.191Z,0.00
2017-12-25T03:37:27.124Z,0.00
2017-12-25T03:38:26.233Z,0.00
2017-12-25T03:39:26.252Z,0.00
2017-12-25T03:40:26.279Z,0.00
2017-12-25T03:41:47.322Z,0.00
2017-12-25T03:42:26.331Z,0.00
2017-12-25T03:43:26.345Z,0.00
2017-12-25T03:44:26.375Z,0.00
2017-12-25T03:45:26.393Z,0.00
2017-12-25T03:46:26.427Z,0.00
2017-12-25T03:47:47.468Z,0.00
2017-12-25T03:48:26.493Z,0.00
2017-12-25T03:49:26.494Z,0.00
2017-12-25T03:50:26.542Z,0.00
2017-12-25T03:51:26.539Z,0.00
2017-12-25T03:52:26.561Z,0.00
2017-12-25T03:53:47.604Z,0.00
2017-12-25T03:54:26.620Z,0.00
2017-12-25T03:55:26.636Z,0.00
2017-12-25T03:56:26.659Z,0.00
2017-12-25T03:57:26.680Z,0.00
2017-12-25T03:58:26.702Z,0.00
2017-12-25T03:59:47.740Z,0.00
2017-12-25T04:00:26.745Z,0.00
2017-12-25T04:01:26.775Z,0.00
2017-12-25T04:02:26.796Z,0.00
2017-12-25T04:03:26.823Z,0.00
2017-12-25T04:04:26.846Z,0.00
2017-12-25T04:05:47.884Z,0.00
2017-12-25T04:06:26.896Z,0.00
2017-12-25T04:07:26.914Z,0.00
2017-12-25T04:08:26.937Z,0.00
2017-12-25T04:09:26.965Z,0.00
2017-12-25T04:10:26.983Z,0.00
2017-12-25T04:11:48.050Z,0.00
2017-12-25T04:12:27.027Z,0.00
2017-12-25T04:13:27.069Z,0.00
2017-12-25T04:14:27.078Z,0.00
2017-12-25T04:15:27.102Z,0.00
2017-12-25T04:16:27.127Z,0.00
2017-12-25T04:17:48.164Z,0.00
2017-12-25T04:18:27.172Z,0.00
2017-12-25T04:19:27.189Z,0.00
2017-12-25T04:20:27.217Z,0.00
2017-12-25T04:21:27.241Z,0.00
2017-12-25T04:22:27.271Z,0.00
2017-12-25T04:23:48.302Z,0.00
2017-12-25T04:24:27.320Z,0.00
2017-12-25T04:25:27.331Z,0.00
2017-12-25T04:26:27.358Z,0.00
2017-12-25T04:27:27.375Z,0.00
2017-12-25T04:28:27.413Z,0.00
2017-12-25T04:29:48.446Z,0.00
2017-12-25T04:30:27.449Z,0.00
2017-12-25T04:31:27.470Z,0.00
2017-12-25T04:32:27.506Z,0.00
2017-12-25T04:33:27.520Z,0.00
2017-12-25T04:34:27.554Z,0.00
2017-12-25T04:35:48.619Z,0.00
2017-12-25T04:36:27.595Z,0.00
2017-12-25T04:37:27.614Z,0.00
2017-12-25T04:38:27.657Z,0.00
2017-12-25T04:39:27.663Z,0.00
2017-12-25T04:40:27.691Z,0.00
2017-12-25T04:41:48.730Z,0.00
2017-12-25T04:42:27.731Z,0.00
2017-12-25T04:43:27.768Z,0.00
2017-12-25T04:44:27.778Z,0.00
2017-12-25T04:45:27.826Z,0.00
2017-12-25T04:46:27.827Z,0.00
2017-12-25T04:47:48.864Z,0.00
2017-12-25T04:48:27.871Z,0.00
2017-12-25T04:49:27.895Z,0.00
2017-12-25T04:50:27.916Z,0.00
2017-12-25T04:51:27.946Z,0.00
2017-12-25T04:52:27.977Z,0.00
2017-12-25T04:53:49.003Z,0.00
2017-12-25T04:54:28.017Z,0.00
2017-12-25T04:55:28.042Z,0.00
2017-12-25T04:56:28.203Z,0.00
2017-12-25T04:57:28.091Z,0.00
2017-12-25T04:58:28.116Z,0.00
2017-12-25T04:59:49.145Z,0.00
2017-12-25T05:00:28.155Z,0.00
2017-12-25T05:01:28.178Z,0.00
2017-12-25T05:02:28.204Z,0.00
2017-12-25T05:03:28.222Z,0.00
2017-12-25T05:04:28.261Z,0.00
2017-12-25T05:05:49.287Z,0.00
2017-12-25T05:06:28.300Z,0.00
2017-12-25T05:07:29.116Z,0.00
2017-12-25T05:08:28.350Z,0.00
2017-12-25T05:09:28.457Z,0.00
2017-12-25T05:10:28.389Z,0.00
2017-12-25T05:11:49.432Z,0.00
2017-12-25T05:12:28.436Z,0.00
2017-12-25T05:13:28.457Z,0.00
2017-12-25T05:14:28.486Z,0.00
2017-12-25T05:15:28.509Z,0.00
2017-12-25T05:16:28.547Z,0.00
2017-12-25T05:17:49.569Z,0.00
2017-12-25T05:18:28.592Z,0.00
2017-12-25T05:19:28.599Z,0.00
2017-12-25T05:20:28.707Z,0.00
2017-12-25T05:21:28.642Z,0.00
2017-12-25T05:22:28.679Z,0.00
2017-12-25T05:23:49.723Z,0.00
2017-12-25T05:24:28.723Z,0.00
2017-12-25T05:25:28.740Z,0.00
2017-12-25T05:26:28.764Z,0.00
2017-12-25T05:27:28.790Z,0.00
2017-12-25T05:28:28.817Z,0.00
2017-12-25T05:29:49.851Z,0.00
2017-12-25T05:30:28.861Z,0.00
2017-12-25T05:31:28.883Z,0.00
2017-12-25T05:32:28.905Z,0.00
2017-12-25T05:33:28.937Z,0.00
2017-12-25T05:34:28.947Z,0.00
2017-12-25T05:35:49.988Z,0.00
2017-12-25T05:36:28.999Z,0.00
2017-12-25T05:37:29.039Z,0.00
2017-12-25T05:38:29.043Z,0.00
2017-12-25T05:39:29.071Z,0.00
2017-12-25T05:40:29.136Z,0.00
2017-12-25T05:41:50.143Z,0.00
2017-12-25T05:42:29.149Z,0.00
2017-12-25T05:43:29.167Z,0.00
2017-12-25T05:44:29.187Z,0.00
2017-12-25T05:45:29.210Z,0.00
2017-12-25T05:46:29.234Z,0.00
2017-12-25T05:47:50.275Z,0.00
2017-12-25T05:48:29.285Z,0.00
2017-12-25T05:49:29.308Z,0.00
2017-12-25T05:50:29.340Z,0.00
2017-12-25T05:51:29.350Z,0.00
2017-12-25T05:52:29.381Z,0.00
2017-12-25T05:53:50.420Z,0.00
2017-12-25T05:54:29.426Z,0.00
2017-12-25T05:55:29.453Z,0.00
2017-12-25T05:56:29.472Z,0.00
2017-12-25T05:57:29.491Z,0.00
2017-12-25T05:58:29.515Z,0.00
2017-12-25T05:59:50.551Z,0.00
2017-12-25T06:00:29.559Z,0.00
2017-12-25T06:01:29.584Z,0.00
2017-12-25T06:02:29.607Z,0.00
2017-12-25T06:03:29.633Z,0.00
2017-12-25T06:04:29.661Z,0.00
2017-12-25T06:05:50.706Z,0.00
2017-12-25T06:06:29.699Z,0.00
2017-12-25T06:07:29.725Z,0.00
2017-12-25T06:08:29.753Z,0.00
2017-12-25T06:09:29.771Z,0.00
2017-12-25T06:10:29.793Z,0.00
2017-12-25T06:11:50.842Z,0.00
2017-12-25T06:12:29.836Z,0.00
2017-12-25T06:13:29.875Z,0.00
2017-12-25T06:14:29.891Z,0.00
2017-12-25T06:15:29.917Z,0.00
2017-12-25T06:16:29.933Z,0.00
2017-12-25T06:17:50.973Z,0.00
2017-12-25T06:18:29.981Z,0.00
2017-12-25T06:19:30.019Z,0.00
2017-12-25T06:20:30.030Z,0.00
2017-12-25T06:21:30.057Z,0.00
2017-12-25T06:22:30.073Z,0.00
2017-12-25T06:23:51.122Z,0.00
2017-12-25T06:24:30.123Z,0.00
2017-12-25T06:25:30.152Z,0.00
2017-12-25T06:26:30.173Z,0.00
2017-12-25T06:27:30.195Z,0.00
2017-12-25T06:28:30.235Z,0.00
2017-12-25T06:29:51.255Z,0.00
2017-12-25T06:30:30.274Z,0.00
2017-12-25T06:31:30.281Z,0.00
2017-12-25T06:32:30.313Z,0.00
2017-12-25T06:33:30.334Z,0.00
2017-12-25T06:34:30.358Z,0.00
2017-12-25T06:35:51.395Z,0.00
2017-12-25T06:36:30.408Z,0.00
2017-12-25T06:37:30.422Z,0.00
2017-12-25T06:38:30.455Z,0.00
2017-12-25T06:39:30.508Z,0.00
2017-12-25T06:40:30.499Z,0.00
2017-12-25T06:41:51.536Z,0.00
2017-12-25T06:42:30.545Z,0.00
2017-12-25T06:43:30.561Z,0.00
2017-12-25T06:44:30.591Z,0.00
2017-12-25T06:45:30.622Z,0.00
2017-12-25T06:46:30.653Z,0.00
2017-12-25T06:47:51.685Z,0.00
2017-12-25T06:48:30.680Z,0.00
2017-12-25T06:49:30.709Z,0.00
2017-12-25T06:50:30.732Z,0.00
2017-12-25T06:51:30.762Z,0.00
2017-12-25T06:52:30.789Z,0.00
2017-12-25T06:53:51.817Z,0.00
2017-12-25T06:54:30.815Z,0.00
2017-12-25T06:55:30.849Z,0.00
2017-12-25T06:56:30.875Z,0.00
2017-12-25T06:57:30.893Z,4.00
2017-12-25T06:58:30.917Z,4.00
2017-12-25T06:59:51.956Z,0.00
2017-12-25T07:00:30.962Z,0.00
2017-12-25T07:01:30.999Z,4.00
2017-12-25T07:02:31.020Z,4.00
2017-12-25T07:03:31.045Z,4.00
2017-12-25T07:04:31.060Z,4.00
2017-12-25T07:05:52.100Z,4.00
2017-12-25T07:06:31.115Z,4.00
2017-12-25T07:07:31.127Z,8.00
2017-12-25T07:08:31.145Z,4.00
2017-12-25T07:09:31.171Z,8.00
2017-12-25T07:10:31.205Z,8.00
2017-12-25T07:11:52.235Z,8.00
2017-12-25T07:12:31.247Z,8.00
2017-12-25T07:13:31.266Z,12.00
2017-12-25T07:14:31.295Z,12.00
2017-12-25T07:15:31.314Z,16.00
2017-12-25T07:16:31.347Z,8.00
2017-12-25T07:17:52.412Z,12.00
2017-12-25T07:18:31.397Z,12.00
2017-12-25T07:19:31.426Z,8.00
2017-12-25T07:20:31.453Z,12.00
2017-12-25T07:21:31.450Z,12.00
2017-12-25T07:22:31.487Z,12.00
2017-12-25T07:23:52.531Z,12.00
2017-12-25T07:24:31.527Z,20.00
2017-12-25T07:25:31.551Z,24.00
2017-12-25T07:26:31.574Z,24.00
2017-12-25T07:27:31.599Z,20.00
2017-12-25T07:28:31.631Z,20.00
2017-12-25T07:29:52.660Z,20.00
2017-12-25T07:30:31.667Z,32.00
2017-12-25T07:31:31.692Z,48.00
2017-12-25T07:32:31.725Z,52.00
2017-12-25T07:33:31.739Z,56.00
2017-12-25T07:34:31.762Z,56.00
2017-12-25T07:35:52.806Z,56.00
2017-12-25T07:36:31.823Z,72.00
2017-12-25T07:37:31.832Z,64.00
2017-12-25T07:38:31.949Z,72.00
2017-12-25T07:39:31.877Z,68.00
2017-12-25T07:40:31.894Z,72.00
2017-12-25T07:41:52.931Z,64.00
2017-12-25T07:42:31.953Z,80.00
2017-12-25T07:43:31.973Z,88.00
2017-12-25T07:44:31.994Z,92.00
2017-12-25T07:45:32.018Z,100.00
2017-12-25T07:46:32.037Z,96.00
2017-12-25T07:47:53.077Z,100.00
2017-12-25T07:48:32.090Z,100.00
2017-12-25T07:49:32.165Z,104.00
2017-12-25T07:50:32.141Z,92.00
2017-12-25T07:51:32.193Z,92.00
2017-12-25T07:52:32.179Z,116.00
2017-12-25T07:53:53.219Z,108.00
2017-12-25T07:54:32.232Z,108.00
2017-12-25T07:55:32.247Z,96.00
2017-12-25T07:56:32.277Z,124.00
2017-12-25T07:57:32.294Z,108.00
2017-12-25T07:58:32.314Z,116.00
2017-12-25T07:59:53.362Z,116.00
2017-12-25T08:00:32.455Z,116.00
2017-12-25T08:01:32.391Z,92.00
2017-12-25T08:02:32.465Z,140.00
2017-12-25T08:03:32.436Z,120.00
2017-12-25T08:04:32.462Z,116.00
2017-12-25T08:05:53.498Z,124.00
2017-12-25T08:06:32.513Z,152.00
2017-12-25T08:07:32.534Z,128.00
2017-12-25T08:08:32.546Z,108.00
2017-12-25T08:09:32.578Z,120.00
2017-12-25T08:10:32.604Z,116.00
2017-12-25T08:11:53.648Z,112.00
2017-12-25T08:12:32.646Z,128.00
2017-12-25T08:13:32.750Z,132.00
2017-12-25T08:14:32.700Z,120.00
2017-12-25T08:15:32.716Z,124.00
2017-12-25T08:16:32.739Z,104.00
2017-12-25T08:17:53.794Z,112.00
2017-12-25T08:18:32.782Z,140.00
2017-12-25T08:19:32.818Z,108.00
2017-12-25T08:20:32.830Z,132.00
2017-12-25T08:21:32.853Z,140.00
2017-12-25T08:22:32.871Z,144.00
2017-12-25T08:23:53.949Z,136.00
2017-12-25T08:24:32.924Z,148.00
2017-12-25T08:25:32.956Z,144.00
2017-12-25T08:26:32.968Z,148.00
2017-12-25T08:27:32.993Z,160.00
2017-12-25T08:28:33.032Z,172.00
2017-12-25T08:29:54.062Z,160.00
2017-12-25T08:30:33.070Z,172.00
2017-12-25T08:31:33.081Z,164.00
2017-12-25T08:32:33.117Z,156.00
2017-12-25T08:33:33.135Z,180.00
2017-12-25T08:34:33.157Z,164.00
2017-12-25T08:35:54.198Z,172.00
2017-12-25T08:36:33.202Z,184.00
2017-12-25T08:37:33.232Z,148.00
2017-12-25T08:38:33.256Z,168.00
2017-12-25T08:39:33.275Z,212.00
2017-12-25T08:40:33.304Z,196.00
2017-12-25T08:41:54.348Z,204.00
2017-12-25T08:42:33.340Z,212.00
2017-12-25T08:43:33.368Z,220.00
2017-12-25T08:44:33.404Z,208.00
2017-12-25T08:45:33.416Z,148.00
2017-12-25T08:46:33.443Z,176.00
2017-12-25T08:47:54.566Z,140.00
2017-12-25T08:48:33.546Z,216.00
2017-12-25T08:49:33.513Z,220.00
2017-12-25T08:50:33.529Z,232.00
2017-12-25T08:51:33.560Z,216.00
2017-12-25T08:52:33.579Z,264.00
2017-12-25T08:53:54.609Z,240.00
2017-12-25T08:54:33.625Z,260.00
2017-12-25T08:55:33.704Z,252.00
2017-12-25T08:56:33.664Z,248.00
2017-12-25T08:57:33.691Z,224.00
2017-12-25T08:58:33.723Z,260.00
2017-12-25T08:59:54.756Z,268.00
2017-12-25T09:00:33.772Z,272.00
2017-12-25T09:01:33.788Z,264.00
2017-12-25T09:02:33.807Z,228.00
2017-12-25T09:03:33.841Z,260.00
2017-12-25T09:04:33.860Z,220.00
2017-12-25T09:05:54.892Z,212.00
2017-12-25T09:06:33.922Z,224.00
2017-12-25T09:07:33.931Z,252.00
2017-12-25T09:08:33.970Z,280.00
2017-12-25T09:09:34.022Z,220.00
2017-12-25T09:10:34.123Z,228.00
2017-12-25T09:11:55.038Z,280.00
2017-12-25T09:12:34.050Z,284.00
2017-12-25T09:13:34.073Z,288.00
2017-12-25T09:14:34.096Z,308.00
2017-12-25T09:15:34.113Z,304.00
2017-12-25T09:16:34.143Z,272.00
2017-12-25T09:17:55.188Z,296.00
2017-12-25T09:18:34.199Z,288.00
2017-12-25T09:19:34.207Z,292.00
2017-12-25T09:20:34.241Z,308.00
2017-12-25T09:21:34.277Z,300.00
2017-12-25T09:22:34.284Z,296.00
2017-12-25T09:23:55.320Z,308.00
2017-12-25T09:24:34.332Z,276.00
2017-12-25T09:25:34.347Z,300.00
2017-12-25T09:26:34.379Z,332.00
2017-12-25T09:27:34.397Z,280.00
2017-12-25T09:28:34.410Z,308.00
2017-12-25T09:29:55.464Z,332.00
2017-12-25T09:30:34.467Z,340.00
2017-12-25T09:31:34.496Z,328.00
2017-12-25T09:32:34.612Z,312.00
2017-12-25T09:33:34.536Z,324.00
2017-12-25T09:34:34.567Z,328.00
2017-12-25T09:35:55.599Z,320.00
2017-12-25T09:36:34.612Z,316.00
2017-12-25T09:37:34.645Z,312.00
2017-12-25T09:38:34.646Z,316.00
2017-12-25T09:39:34.680Z,320.00
2017-12-25T09:40:34.696Z,312.00
2017-12-25T09:41:55.751Z,352.00
2017-12-25T09:42:34.740Z,344.00
2017-12-25T09:43:34.765Z,364.00
2017-12-25T09:44:34.791Z,364.00
2017-12-25T09:45:34.927Z,384.00
2017-12-25T09:46:34.840Z,364.00
2017-12-25T09:47:55.874Z,340.00
2017-12-25T09:48:34.890Z,360.00
2017-12-25T09:49:34.916Z,352.00
2017-12-25T09:50:34.940Z,416.00
2017-12-25T09:51:34.951Z,372.00
2017-12-25T09:52:34.987Z,392.00
2017-12-25T09:53:56.026Z,416.00
2017-12-25T09:54:35.025Z,436.00
2017-12-25T09:55:35.058Z,424.00
2017-12-25T09:56:35.073Z,420.00
2017-12-25T09:57:35.092Z,428.00
2017-12-25T09:58:35.121Z,432.00
2017-12-25T09:59:56.162Z,460.00
2017-12-25T10:00:35.176Z,468.00
2017-12-25T10:01:35.191Z,440.00
2017-12-25T10:02:35.231Z,420.00
2017-12-25T10:03:35.233Z,452.00
2017-12-25T10:04:35.260Z,436.00
2017-12-25T10:05:56.293Z,412.00
2017-12-25T10:06:35.314Z,396.00
2017-12-25T10:07:35.330Z,424.00
2017-12-25T10:08:35.349Z,448.00
2017-12-25T10:09:35.374Z,372.00
2017-12-25T10:10:35.399Z,348.00
2017-12-25T10:11:56.457Z,404.00
2017-12-25T10:12:35.448Z,384.00
2017-12-25T10:13:35.482Z,436.00
2017-12-25T10:14:35.508Z,388.00
2017-12-25T10:15:35.523Z,476.00
2017-12-25T10:16:35.540Z,452.00
2017-12-25T10:17:56.590Z,456.00
2017-12-25T10:18:35.585Z,396.00
2017-12-25T10:19:35.625Z,472.00
2017-12-25T10:20:35.639Z,420.00
2017-12-25T10:21:35.666Z,404.00
2017-12-25T10:22:35.690Z,436.00
2017-12-25T10:23:56.715Z,400.00
2017-12-25T10:24:35.722Z,452.00
2017-12-25T10:25:35.757Z,460.00
2017-12-25T10:26:35.775Z,460.00
2017-12-25T10:27:35.795Z,536.00
2017-12-25T10:28:35.822Z,516.00
2017-12-25T10:29:56.860Z,472.00
2017-12-25T10:30:35.879Z,488.00
2017-12-25T10:31:35.903Z,500.00
2017-12-25T10:32:35.933Z,580.00
2017-12-25T10:33:35.936Z,440.00
2017-12-25T10:34:35.957Z,532.00
2017-12-25T10:35:57.000Z,516.00
2017-12-25T10:36:36.029Z,652.00
2017-12-25T10:37:36.028Z,792.00
2017-12-25T10:38:36.055Z,704.00
2017-12-25T10:39:36.080Z,708.00
2017-12-25T10:40:36.107Z,560.00
2017-12-25T10:41:57.141Z,516.00
2017-12-25T10:42:36.202Z,540.00
2017-12-25T10:43:36.172Z,476.00
2017-12-25T10:44:36.206Z,496.00
2017-12-25T10:45:36.218Z,436.00
2017-12-25T10:46:36.248Z,452.00
2017-12-25T10:47:57.286Z,528.00
2017-12-25T10:48:36.295Z,512.00
2017-12-25T10:49:36.314Z,496.00
2017-12-25T10:50:36.340Z,496.00
2017-12-25T10:51:36.359Z,548.00
2017-12-25T10:52:36.378Z,532.00
2017-12-25T10:53:57.423Z,508.00
2017-12-25T10:54:36.432Z,444.00
2017-12-25T10:55:36.545Z,364.00
2017-12-25T10:56:36.477Z,476.00
2017-12-25T10:57:36.504Z,548.00
2017-12-25T10:58:36.524Z,496.00
2017-12-25T10:59:57.572Z,396.00
2017-12-25T11:00:36.571Z,392.00
2017-12-25T11:01:36.623Z,432.00
2017-12-25T11:02:36.660Z,428.00
2017-12-25T11:03:36.657Z,444.00
2017-12-25T11:04:36.801Z,380.00
2017-12-25T11:05:57.699Z,340.00
2017-12-25T11:06:36.719Z,356.00
2017-12-25T11:07:36.729Z,412.00
2017-12-25T11:08:36.781Z,432.00
2017-12-25T11:09:36.771Z,360.00
2017-12-25T11:10:36.805Z,324.00
2017-12-25T11:11:57.838Z,360.00
2017-12-25T11:12:36.852Z,424.00
2017-12-25T11:13:36.869Z,540.00
2017-12-25T11:14:36.900Z,476.00
2017-12-25T11:15:36.918Z,420.00
2017-12-25T11:16:36.948Z,404.00
2017-12-25T11:17:57.992Z,524.00
2017-12-25T11:18:36.983Z,564.00
2017-12-25T11:19:37.004Z,520.00
2017-12-25T11:20:37.032Z,456.00
2017-12-25T11:21:37.067Z,492.00
2017-12-25T11:22:37.190Z,456.00
2017-12-25T11:23:58.128Z,400.00
2017-12-25T11:24:37.135Z,400.00
2017-12-25T11:25:37.158Z,512.00
2017-12-25T11:26:37.177Z,512.00
2017-12-25T11:27:37.203Z,536.00
2017-12-25T11:28:37.234Z,568.00
2017-12-25T11:29:58.340Z,556.00
2017-12-25T11:30:37.273Z,552.00
2017-12-25T11:31:37.301Z,496.00
2017-12-25T11:32:37.314Z,504.00
2017-12-25T11:33:37.360Z,440.00
2017-12-25T11:34:37.359Z,420.00
2017-12-25T11:35:58.399Z,452.00
2017-12-25T11:36:37.404Z,364.00
2017-12-25T11:37:37.436Z,348.00
2017-12-25T11:38:37.456Z,444.00
2017-12-25T11:39:37.478Z,540.00
2017-12-25T11:40:37.510Z,428.00
2017-12-25T11:41:58.534Z,548.00
2017-12-25T11:42:37.547Z,424.00
2017-12-25T11:43:37.578Z,336.00
2017-12-25T11:44:37.593Z,320.00
2017-12-25T11:45:37.611Z,348.00
2017-12-25T11:46:37.651Z,588.00
2017-12-25T11:47:58.679Z,536.00
2017-12-25T11:48:37.692Z,424.00
2017-12-25T11:49:37.718Z,504.00
2017-12-25T11:50:37.741Z,436.00
2017-12-25T11:51:37.758Z,392.00
2017-12-25T11:52:37.786Z,476.00
2017-12-25T11:53:58.828Z,428.00
2017-12-25T11:54:37.829Z,464.00
2017-12-25T11:55:37.848Z,468.00
2017-12-25T11:56:37.881Z,484.00
2017-12-25T11:57:37.893Z,548.00
2017-12-25T11:58:37.937Z,548.00
2017-12-25T11:59:58.972Z,528.00
2017-12-25T12:00:37.978Z,468.00
2017-12-25T12:01:37.990Z,476.00
2017-12-25T12:02:38.024Z,456.00
2017-12-25T12:03:38.068Z,456.00
2017-12-25T12:04:38.071Z,488.00
2017-12-25T12:05:59.104Z,456.00
2017-12-25T12:06:38.106Z,400.00
2017-12-25T12:07:38.134Z,412.00
2017-12-25T12:08:38.151Z,404.00
2017-12-25T12:09:38.182Z,380.00
2017-12-25T12:10:38.196Z,364.00
2017-12-25T12:11:59.260Z,352.00
2017-12-25T12:12:38.252Z,364.00
2017-12-25T12:13:38.276Z,380.00
2017-12-25T12:14:38.320Z,372.00
2017-12-25T12:15:38.322Z,400.00
2017-12-25T12:16:38.373Z,392.00
2017-12-25T12:17:59.373Z,376.00
2017-12-25T12:18:38.383Z,404.00
2017-12-25T12:19:38.421Z,372.00
2017-12-25T12:20:38.434Z,420.00
2017-12-25T12:21:38.456Z,440.00
2017-12-25T12:22:38.490Z,416.00
2017-12-25T12:23:59.520Z,424.00
2017-12-25T12:24:38.526Z,416.00
2017-12-25T12:25:38.565Z,408.00
2017-12-25T12:26:38.572Z,432.00
2017-12-25T12:27:38.617Z,484.00
2017-12-25T12:28:38.628Z,468.00
2017-12-25T12:29:59.658Z,400.00
2017-12-25T12:30:38.674Z,380.00
2017-12-25T12:31:38.688Z,376.00
2017-12-25T12:32:38.718Z,400.00
2017-12-25T12:33:38.736Z,416.00
2017-12-25T12:34:38.770Z,384.00
2017-12-25T12:35:59.808Z,360.00
2017-12-25T12:36:38.806Z,424.00
2017-12-25T12:37:38.822Z,316.00
2017-12-25T12:38:38.961Z,264.00
2017-12-25T12:39:38.884Z,212.00
2017-12-25T12:40:38.914Z,196.00
2017-12-25T12:41:59.944Z,212.00
2017-12-25T12:42:38.946Z,196.00
2017-12-25T12:43:38.970Z,200.00
2017-12-25T12:44:38.993Z,208.00
2017-12-25T12:45:39.018Z,264.00
2017-12-25T12:46:39.046Z,264.00
2017-12-25T12:48:00.078Z,272.00
2017-12-25T12:48:39.098Z,256.00
2017-12-25T12:49:39.119Z,236.00
2017-12-25T12:50:39.148Z,212.00
2017-12-25T12:51:39.155Z,220.00
2017-12-25T12:52:39.184Z,204.00
2017-12-25T12:54:00.221Z,200.00
2017-12-25T12:54:39.223Z,188.00
2017-12-25T12:55:39.247Z,164.00
2017-12-25T12:56:39.283Z,152.00